sensor_id;sensor_type;location;lat;lon;timestamp;temperature;humidity
1766;DHT22;880;52.452;8.656;2023-03-01T00:01:40;0.30;99.90
1766;DHT22;880;52.452;8.656;2023-03-01T00:04:07;0.30;99.90
1766;DHT22;880;52.452;8.656;2023-03-01T00:06:34;0.20;99.90
1766;DHT22;880;52.452;8.656;2023-03-01T00:09:01;0.10;99.90
1766;DHT22;880;52.452;8.656;2023-03-01T00:11:30;0.10;99.90
1766;DHT22;880;52.452;8.656;2023-03-01T00:13:59;0.10;99.90
1766;DHT22;880;52.452;8.656;2023-03-01T00:16:30;0.10;99.90
1766;DHT22;880;52.452;8.656;2023-03-01T00:19:00;0.10;99.90
1766;DHT22;880;52.452;8.656;2023-03-01T00:21:28;0.10;99.90
1766;DHT22;880;52.452;8.656;2023-03-01T00:23:55;0.00;99.90
1766;DHT22;880;52.452;8.656;2023-03-01T00:26:26;0.00;99.90
1766;DHT22;880;52.452;8.656;2023-03-01T00:28:56;-0.10;99.90
1766;DHT22;880;52.452;8.656;2023-03-01T00:31:29;-0.10;99.90
1766;DHT22;880;52.452;8.656;2023-03-01T00:34:00;-0.10;99.90
1766;DHT22;880;52.452;8.656;2023-03-01T00:36:30;-0.20;99.90
1766;DHT22;880;52.452;8.656;2023-03-01T00:38:59;-0.20;99.90
1766;DHT22;880;52.452;8.656;2023-03-01T00:41:26;-0.20;99.90
1766;DHT22;880;52.452;8.656;2023-03-01T00:43:54;-0.20;99.90
1766;DHT22;880;52.452;8.656;2023-03-01T00:46:24;-0.30;99.90
1766;DHT22;880;52.452;8.656;2023-03-01T00:48:53;-0.30;99.90
1766;DHT22;880;52.452;8.656;2023-03-01T00:51:24;-0.30;99.90
1766;DHT22;880;52.452;8.656;2023-03-01T00:53:54;-0.30;99.90
1766;DHT22;880;52.452;8.656;2023-03-01T00:56:22;-0.30;99.90
1766;DHT22;880;52.452;8.656;2023-03-01T00:58:49;-0.30;99.90
1766;DHT22;880;52.452;8.656;2023-03-01T01:01:19;-0.40;99.90
1766;DHT22;880;52.452;8.656;2023-03-01T01:06:33;-0.50;99.90
1766;DHT22;880;52.452;8.656;2023-03-01T01:09:04;-0.50;99.90
1766;DHT22;880;52.452;8.656;2023-03-01T01:11:33;-0.40;99.90
1766;DHT22;880;52.452;8.656;2023-03-01T01:14:02;-0.40;99.90
1766;DHT22;880;52.452;8.656;2023-03-01T01:16:29;-0.40;99.90
1766;DHT22;880;52.452;8.656;2023-03-01T01:18:57;-0.50;99.90
1766;DHT22;880;52.452;8.656;2023-03-01T01:21:25;-0.50;99.90
1766;DHT22;880;52.452;8.656;2023-03-01T01:23:52;-0.50;99.90
1766;DHT22;880;52.452;8.656;2023-03-01T01:26:28;-0.50;99.90
1766;DHT22;880;52.452;8.656;2023-03-01T01:28:57;-0.60;99.90
1766;DHT22;880;52.452;8.656;2023-03-01T01:31:25;-0.60;99.90
1766;DHT22;880;52.452;8.656;2023-03-01T01:33:53;-0.60;99.90
1766;DHT22;880;52.452;8.656;2023-03-01T01:36:21;-0.60;99.90
1766;DHT22;880;52.452;8.656;2023-03-01T01:38:48;-0.60;99.90
1766;DHT22;880;52.452;8.656;2023-03-01T01:41:16;-0.70;99.90
1766;DHT22;880;52.452;8.656;2023-03-01T01:43:45;-0.70;99.90
1766;DHT22;880;52.452;8.656;2023-03-01T01:46:29;-0.80;99.90
1766;DHT22;880;52.452;8.656;2023-03-01T01:49:01;-1.00;99.90
1766;DHT22;880;52.452;8.656;2023-03-01T01:51:35;-1.10;99.90
1766;DHT22;880;52.452;8.656;2023-03-01T01:55:15;-1.10;99.90
1766;DHT22;880;52.452;8.656;2023-03-01T01:57:16;-1.10;99.90
1766;DHT22;880;52.452;8.656;2023-03-01T01:59:56;-1.00;99.90
1766;DHT22;880;52.452;8.656;2023-03-01T02:02:26;-1.00;99.90
1766;DHT22;880;52.452;8.656;2023-03-01T02:07:56;-1.10;99.90
1766;DHT22;880;52.452;8.656;2023-03-01T02:10:25;-1.10;99.90
1766;DHT22;880;52.452;8.656;2023-03-01T02:12:55;-1.10;99.90
1766;DHT22;880;52.452;8.656;2023-03-01T02:15:23;-1.20;99.90
1766;DHT22;880;52.452;8.656;2023-03-01T02:17:51;-1.20;99.90
1766;DHT22;880;52.452;8.656;2023-03-01T02:23:33;-1.20;99.90
1766;DHT22;880;52.452;8.656;2023-03-01T02:26:18;-1.30;99.90
1766;DHT22;880;52.452;8.656;2023-03-01T02:28:50;-1.30;99.90
1766;DHT22;880;52.452;8.656;2023-03-01T02:31:20;-1.30;99.90
1766;DHT22;880;52.452;8.656;2023-03-01T02:34:08;-1.30;99.90
1766;DHT22;880;52.452;8.656;2023-03-01T02:37:04;-1.40;99.90
1766;DHT22;880;52.452;8.656;2023-03-01T02:39:47;-1.40;99.90
1766;DHT22;880;52.452;8.656;2023-03-01T02:42:23;-1.50;99.90
1766;DHT22;880;52.452;8.656;2023-03-01T02:44:57;-1.60;99.90
1766;DHT22;880;52.452;8.656;2023-03-01T02:47:24;-1.60;99.90
1766;DHT22;880;52.452;8.656;2023-03-01T02:49:51;-1.60;99.90
1766;DHT22;880;52.452;8.656;2023-03-01T02:52:39;-1.60;99.90
1766;DHT22;880;52.452;8.656;2023-03-01T02:55:14;-1.60;99.90
1766;DHT22;880;52.452;8.656;2023-03-01T02:57:45;-1.60;99.90
1766;DHT22;880;52.452;8.656;2023-03-01T03:00:16;-1.60;99.90
1766;DHT22;880;52.452;8.656;2023-03-01T03:02:50;-1.60;99.90
1766;DHT22;880;52.452;8.656;2023-03-01T03:05:23;-1.60;99.90
1766;DHT22;880;52.452;8.656;2023-03-01T03:07:56;-1.70;99.90
1766;DHT22;880;52.452;8.656;2023-03-01T03:10:29;-1.70;99.90
1766;DHT22;880;52.452;8.656;2023-03-01T03:13:05;-1.70;99.90
1766;DHT22;880;52.452;8.656;2023-03-01T03:15:34;-1.70;99.90
1766;DHT22;880;52.452;8.656;2023-03-01T03:18:04;-1.70;99.90
1766;DHT22;880;52.452;8.656;2023-03-01T03:20:33;-1.80;99.90
1766;DHT22;880;52.452;8.656;2023-03-01T03:23:00;-1.80;99.90
1766;DHT22;880;52.452;8.656;2023-03-01T03:25:28;-1.90;99.90
1766;DHT22;880;52.452;8.656;2023-03-01T03:27:56;-1.90;99.90
1766;DHT22;880;52.452;8.656;2023-03-01T03:30:32;-1.90;99.90
1766;DHT22;880;52.452;8.656;2023-03-01T03:32:59;-1.90;99.90
1766;DHT22;880;52.452;8.656;2023-03-01T03:35:32;-2.00;99.90
1766;DHT22;880;52.452;8.656;2023-03-01T03:38:12;-2.20;99.90
1766;DHT22;880;52.452;8.656;2023-03-01T03:40:48;-2.30;99.90
1766;DHT22;880;52.452;8.656;2023-03-01T03:43:22;-2.40;99.90
1766;DHT22;880;52.452;8.656;2023-03-01T03:45:50;-2.50;99.90
1766;DHT22;880;52.452;8.656;2023-03-01T03:48:18;-2.50;99.90
1766;DHT22;880;52.452;8.656;2023-03-01T03:50:51;-2.50;99.90
1766;DHT22;880;52.452;8.656;2023-03-01T03:53:21;-2.60;99.90
1766;DHT22;880;52.452;8.656;2023-03-01T03:55:50;-2.60;99.90
1766;DHT22;880;52.452;8.656;2023-03-01T03:58:20;-2.50;99.90
1766;DHT22;880;52.452;8.656;2023-03-01T04:00:51;-2.40;99.90
1766;DHT22;880;52.452;8.656;2023-03-01T04:03:20;-2.30;99.90
1766;DHT22;880;52.452;8.656;2023-03-01T04:05:47;-2.30;99.90
1766;DHT22;880;52.452;8.656;2023-03-01T04:08:20;-2.20;99.90
1766;DHT22;880;52.452;8.656;2023-03-01T04:10:50;-2.20;99.90
1766;DHT22;880;52.452;8.656;2023-03-01T04:13:21;-2.20;99.90
1766;DHT22;880;52.452;8.656;2023-03-01T04:15:49;-2.20;99.90
1766;DHT22;880;52.452;8.656;2023-03-01T04:18:21;-2.20;99.90
1766;DHT22;880;52.452;8.656;2023-03-01T04:20:49;-2.20;99.90
1766;DHT22;880;52.452;8.656;2023-03-01T04:23:19;-2.20;99.90
1766;DHT22;880;52.452;8.656;2023-03-01T04:25:55;-2.30;99.90
1766;DHT22;880;52.452;8.656;2023-03-01T04:28:29;-2.30;99.90
1766;DHT22;880;52.452;8.656;2023-03-01T04:31:06;-2.30;99.90
1766;DHT22;880;52.452;8.656;2023-03-01T04:33:45;-2.30;99.90
1766;DHT22;880;52.452;8.656;2023-03-01T04:36:15;-2.30;99.90
1766;DHT22;880;52.452;8.656;2023-03-01T04:38:43;-2.30;99.90
1766;DHT22;880;52.452;8.656;2023-03-01T04:41:18;-2.30;99.90
1766;DHT22;880;52.452;8.656;2023-03-01T04:43:47;-2.30;99.90
1766;DHT22;880;52.452;8.656;2023-03-01T04:46:17;-2.30;99.90
1766;DHT22;880;52.452;8.656;2023-03-01T04:48:46;-2.30;99.90
1766;DHT22;880;52.452;8.656;2023-03-01T04:51:16;-2.30;99.90
1766;DHT22;880;52.452;8.656;2023-03-01T04:53:43;-2.40;99.90
1766;DHT22;880;52.452;8.656;2023-03-01T04:56:11;-2.40;99.90
1766;DHT22;880;52.452;8.656;2023-03-01T04:58:42;-2.40;99.90
1766;DHT22;880;52.452;8.656;2023-03-01T05:01:10;-2.40;99.90
1766;DHT22;880;52.452;8.656;2023-03-01T05:03:43;-2.40;99.90
1766;DHT22;880;52.452;8.656;2023-03-01T05:06:11;-2.50;99.90
1766;DHT22;880;52.452;8.656;2023-03-01T05:08:39;-2.50;99.90
1766;DHT22;880;52.452;8.656;2023-03-01T05:11:07;-2.50;99.90
1766;DHT22;880;52.452;8.656;2023-03-01T05:13:36;-2.50;99.90
1766;DHT22;880;52.452;8.656;2023-03-01T05:16:05;-2.60;99.90
1766;DHT22;880;52.452;8.656;2023-03-01T05:18:38;-2.70;99.90
1766;DHT22;880;52.452;8.656;2023-03-01T05:21:08;-2.70;99.90
1766;DHT22;880;52.452;8.656;2023-03-01T05:23:36;-2.70;99.90
1766;DHT22;880;52.452;8.656;2023-03-01T05:26:06;-2.80;99.90
1766;DHT22;880;52.452;8.656;2023-03-01T05:28:48;-2.80;99.90
1766;DHT22;880;52.452;8.656;2023-03-01T05:31:15;-2.80;99.90
1766;DHT22;880;52.452;8.656;2023-03-01T05:33:42;-2.80;99.90
1766;DHT22;880;52.452;8.656;2023-03-01T05:36:10;-2.90;99.90
1766;DHT22;880;52.452;8.656;2023-03-01T05:38:37;-2.90;99.90
1766;DHT22;880;52.452;8.656;2023-03-01T05:41:04;-2.90;99.90
1766;DHT22;880;52.452;8.656;2023-03-01T05:43:31;-2.90;99.90
1766;DHT22;880;52.452;8.656;2023-03-01T05:46:01;-2.90;99.90
1766;DHT22;880;52.452;8.656;2023-03-01T05:48:28;-2.90;99.90
1766;DHT22;880;52.452;8.656;2023-03-01T05:50:58;-2.90;99.90
1766;DHT22;880;52.452;8.656;2023-03-01T05:53:26;-2.90;99.90
1766;DHT22;880;52.452;8.656;2023-03-01T05:55:53;-2.90;99.90
1766;DHT22;880;52.452;8.656;2023-03-01T05:58:20;-3.00;99.90
1766;DHT22;880;52.452;8.656;2023-03-01T06:00:49;-3.10;99.90
1766;DHT22;880;52.452;8.656;2023-03-01T06:03:18;-3.10;99.90
1766;DHT22;880;52.452;8.656;2023-03-01T06:05:45;-3.10;99.90
1766;DHT22;880;52.452;8.656;2023-03-01T06:08:13;-3.10;99.90
1766;DHT22;880;52.452;8.656;2023-03-01T06:10:40;-3.10;99.90
1766;DHT22;880;52.452;8.656;2023-03-01T06:13:07;-3.00;99.90
1766;DHT22;880;52.452;8.656;2023-03-01T06:15:34;-3.00;99.90
1766;DHT22;880;52.452;8.656;2023-03-01T06:18:02;-3.00;99.90
1766;DHT22;880;52.452;8.656;2023-03-01T06:20:29;-3.00;99.90
1766;DHT22;880;52.452;8.656;2023-03-01T06:22:56;-3.00;99.90
1766;DHT22;880;52.452;8.656;2023-03-01T06:25:25;-3.00;99.90
1766;DHT22;880;52.452;8.656;2023-03-01T06:27:53;-2.90;99.90
1766;DHT22;880;52.452;8.656;2023-03-01T06:30:21;-3.00;99.90
1766;DHT22;880;52.452;8.656;2023-03-01T06:32:49;-3.00;99.90
1766;DHT22;880;52.452;8.656;2023-03-01T06:35:18;-2.90;99.90
1766;DHT22;880;52.452;8.656;2023-03-01T06:37:46;-3.00;99.90
1766;DHT22;880;52.452;8.656;2023-03-01T06:40:14;-3.00;99.90
1766;DHT22;880;52.452;8.656;2023-03-01T06:42:47;-3.00;99.90
1766;DHT22;880;52.452;8.656;2023-03-01T06:45:16;-3.00;99.90
1766;DHT22;880;52.452;8.656;2023-03-01T06:47:44;-3.00;99.90
1766;DHT22;880;52.452;8.656;2023-03-01T06:50:12;-2.90;99.90
1766;DHT22;880;52.452;8.656;2023-03-01T06:52:40;-2.80;99.90
1766;DHT22;880;52.452;8.656;2023-03-01T06:55:07;-2.80;99.90
1766;DHT22;880;52.452;8.656;2023-03-01T06:57:34;-2.70;99.90
1766;DHT22;880;52.452;8.656;2023-03-01T07:00:05;-2.70;99.90
1766;DHT22;880;52.452;8.656;2023-03-01T07:02:33;-2.60;99.90
1766;DHT22;880;52.452;8.656;2023-03-01T07:05:00;-2.50;99.90
1766;DHT22;880;52.452;8.656;2023-03-01T07:07:27;-2.40;99.90
1766;DHT22;880;52.452;8.656;2023-03-01T07:09:54;-2.30;99.90
1766;DHT22;880;52.452;8.656;2023-03-01T07:12:21;-2.20;99.90
1766;DHT22;880;52.452;8.656;2023-03-01T07:14:48;-2.00;99.90
1766;DHT22;880;52.452;8.656;2023-03-01T07:17:15;-1.90;99.90
1766;DHT22;880;52.452;8.656;2023-03-01T07:19:42;-1.80;99.90
1766;DHT22;880;52.452;8.656;2023-03-01T07:22:09;-1.60;99.90
1766;DHT22;880;52.452;8.656;2023-03-01T07:24:36;-1.60;99.90
1766;DHT22;880;52.452;8.656;2023-03-01T07:27:03;-1.40;99.90
1766;DHT22;880;52.452;8.656;2023-03-01T07:29:30;-1.40;99.90
1766;DHT22;880;52.452;8.656;2023-03-01T07:31:57;-1.20;99.90
1766;DHT22;880;52.452;8.656;2023-03-01T07:34:25;-1.10;99.90
1766;DHT22;880;52.452;8.656;2023-03-01T07:36:52;-1.10;99.90
1766;DHT22;880;52.452;8.656;2023-03-01T07:39:19;-1.00;99.90
1766;DHT22;880;52.452;8.656;2023-03-01T07:41:46;-0.90;99.90
1766;DHT22;880;52.452;8.656;2023-03-01T07:44:13;-0.90;99.90
1766;DHT22;880;52.452;8.656;2023-03-01T07:46:40;-0.90;99.90
1766;DHT22;880;52.452;8.656;2023-03-01T07:49:07;-0.80;99.90
1766;DHT22;880;52.452;8.656;2023-03-01T07:51:34;-0.60;99.90
1766;DHT22;880;52.452;8.656;2023-03-01T07:54:01;-0.50;99.90
1766;DHT22;880;52.452;8.656;2023-03-01T07:56:28;-0.40;99.90
1766;DHT22;880;52.452;8.656;2023-03-01T07:58:55;-0.30;99.90
1766;DHT22;880;52.452;8.656;2023-03-01T08:01:22;-0.10;99.90
1766;DHT22;880;52.452;8.656;2023-03-01T08:03:50;0.10;99.90
1766;DHT22;880;52.452;8.656;2023-03-01T08:06:18;0.30;99.90
1766;DHT22;880;52.452;8.656;2023-03-01T08:08:45;0.40;99.90
1766;DHT22;880;52.452;8.656;2023-03-01T08:11:14;0.60;99.90
1766;DHT22;880;52.452;8.656;2023-03-01T08:13:42;0.80;99.90
1766;DHT22;880;52.452;8.656;2023-03-01T08:16:12;0.90;99.90
1766;DHT22;880;52.452;8.656;2023-03-01T08:18:40;1.10;99.90
1766;DHT22;880;52.452;8.656;2023-03-01T08:21:13;1.20;99.90
1766;DHT22;880;52.452;8.656;2023-03-01T08:23:42;1.30;99.90
1766;DHT22;880;52.452;8.656;2023-03-01T08:26:16;1.50;99.90
1766;DHT22;880;52.452;8.656;2023-03-01T08:28:47;1.70;99.90
1766;DHT22;880;52.452;8.656;2023-03-01T08:31:50;2.00;99.90
1766;DHT22;880;52.452;8.656;2023-03-01T08:34:12;2.20;99.90
1766;DHT22;880;52.452;8.656;2023-03-01T08:36:42;2.40;99.90
1766;DHT22;880;52.452;8.656;2023-03-01T08:39:14;2.60;99.90
1766;DHT22;880;52.452;8.656;2023-03-01T08:41:43;2.80;99.90
1766;DHT22;880;52.452;8.656;2023-03-01T08:44:13;3.00;99.90
1766;DHT22;880;52.452;8.656;2023-03-01T08:46:44;3.20;99.90
1766;DHT22;880;52.452;8.656;2023-03-01T08:49:14;3.40;99.90
1766;DHT22;880;52.452;8.656;2023-03-01T08:51:44;3.60;99.90
1766;DHT22;880;52.452;8.656;2023-03-01T08:54:17;3.80;99.90
1766;DHT22;880;52.452;8.656;2023-03-01T08:56:47;3.80;99.90
1766;DHT22;880;52.452;8.656;2023-03-01T08:59:15;4.00;99.90
1766;DHT22;880;52.452;8.656;2023-03-01T09:01:43;4.30;99.90
1766;DHT22;880;52.452;8.656;2023-03-01T09:04:12;4.40;99.90
1766;DHT22;880;52.452;8.656;2023-03-01T09:06:39;4.50;99.90
1766;DHT22;880;52.452;8.656;2023-03-01T09:09:07;4.70;99.90
1766;DHT22;880;52.452;8.656;2023-03-01T09:11:41;4.90;99.90
1766;DHT22;880;52.452;8.656;2023-03-01T09:14:10;4.90;99.90
1766;DHT22;880;52.452;8.656;2023-03-01T09:16:38;4.80;99.90
1766;DHT22;880;52.452;8.656;2023-03-01T09:19:06;4.80;99.90
1766;DHT22;880;52.452;8.656;2023-03-01T09:21:33;4.90;99.90
1766;DHT22;880;52.452;8.656;2023-03-01T09:24:12;5.20;99.90
1766;DHT22;880;52.452;8.656;2023-03-01T09:26:41;5.40;99.90
1766;DHT22;880;52.452;8.656;2023-03-01T09:29:08;5.40;99.90
1766;DHT22;880;52.452;8.656;2023-03-01T09:31:36;5.40;99.90
1766;DHT22;880;52.452;8.656;2023-03-01T09:34:03;5.40;99.90
1766;DHT22;880;52.452;8.656;2023-03-01T09:36:30;5.50;99.90
1766;DHT22;880;52.452;8.656;2023-03-01T09:38:58;5.70;99.90
1766;DHT22;880;52.452;8.656;2023-03-01T09:44:38;5.90;99.90
1766;DHT22;880;52.452;8.656;2023-03-01T09:47:22;6.20;99.90
1766;DHT22;880;52.452;8.656;2023-03-01T09:55:17;6.60;99.90
1766;DHT22;880;52.452;8.656;2023-03-01T09:57:50;6.70;99.90
1766;DHT22;880;52.452;8.656;2023-03-01T10:02:57;6.90;99.90
1766;DHT22;880;52.452;8.656;2023-03-01T10:05:41;7.00;99.90
1766;DHT22;880;52.452;8.656;2023-03-01T10:08:30;7.00;99.90
1766;DHT22;880;52.452;8.656;2023-03-01T10:11:04;7.20;99.90
1766;DHT22;880;52.452;8.656;2023-03-01T10:13:59;7.50;99.90
1766;DHT22;880;52.452;8.656;2023-03-01T10:16:55;7.70;99.90
1766;DHT22;880;52.452;8.656;2023-03-01T10:19:45;7.60;99.90
1766;DHT22;880;52.452;8.656;2023-03-01T10:22:19;7.40;99.90
1766;DHT22;880;52.452;8.656;2023-03-01T10:24:50;7.30;99.90
1766;DHT22;880;52.452;8.656;2023-03-01T10:27:39;7.30;99.90
1766;DHT22;880;52.452;8.656;2023-03-01T10:30:32;7.50;99.90
1766;DHT22;880;52.452;8.656;2023-03-01T10:33:19;7.60;99.90
1766;DHT22;880;52.452;8.656;2023-03-01T10:35:49;7.60;99.90
1766;DHT22;880;52.452;8.656;2023-03-01T10:38:16;7.60;99.90
1766;DHT22;880;52.452;8.656;2023-03-01T10:41:00;7.60;99.90
1766;DHT22;880;52.452;8.656;2023-03-01T10:43:53;7.60;99.90
1766;DHT22;880;52.452;8.656;2023-03-01T10:46:31;7.60;99.90
1766;DHT22;880;52.452;8.656;2023-03-01T10:49:13;7.70;99.90
1766;DHT22;880;52.452;8.656;2023-03-01T10:51:47;7.90;99.90
1766;DHT22;880;52.452;8.656;2023-03-01T10:54:32;8.00;99.90
1766;DHT22;880;52.452;8.656;2023-03-01T10:57:04;8.20;99.90
1766;DHT22;880;52.452;8.656;2023-03-01T10:59:36;8.40;99.90
1766;DHT22;880;52.452;8.656;2023-03-01T11:02:27;8.60;99.90
1766;DHT22;880;52.452;8.656;2023-03-01T11:05:18;8.60;99.90
1766;DHT22;880;52.452;8.656;2023-03-01T11:07:54;8.60;99.90
1766;DHT22;880;52.452;8.656;2023-03-01T11:10:27;8.40;99.90
1766;DHT22;880;52.452;8.656;2023-03-01T11:13:18;8.10;99.90
1766;DHT22;880;52.452;8.656;2023-03-01T11:16:04;8.00;99.90
1766;DHT22;880;52.452;8.656;2023-03-01T11:18:34;8.20;99.90
1766;DHT22;880;52.452;8.656;2023-03-01T11:21:13;8.40;99.90
1766;DHT22;880;52.452;8.656;2023-03-01T11:23:43;8.30;99.90
1766;DHT22;880;52.452;8.656;2023-03-01T11:26:13;8.50;99.90
1766;DHT22;880;52.452;8.656;2023-03-01T11:28:42;8.50;99.90
1766;DHT22;880;52.452;8.656;2023-03-01T11:31:11;8.40;99.90
1766;DHT22;880;52.452;8.656;2023-03-01T11:34:06;8.40;99.90
1766;DHT22;880;52.452;8.656;2023-03-01T11:36:54;8.50;99.90
1766;DHT22;880;52.452;8.656;2023-03-01T11:39:38;8.70;99.90
1766;DHT22;880;52.452;8.656;2023-03-01T11:42:19;8.80;99.90
1766;DHT22;880;52.452;8.656;2023-03-01T11:44:50;9.10;99.90
1766;DHT22;880;52.452;8.656;2023-03-01T11:50:33;9.20;99.90
1766;DHT22;880;52.452;8.656;2023-03-01T11:56:25;9.40;99.20
1766;DHT22;880;52.452;8.656;2023-03-01T11:59:17;9.50;97.90
1766;DHT22;880;52.452;8.656;2023-03-01T12:08:03;9.30;97.10
1766;DHT22;880;52.452;8.656;2023-03-01T12:10:57;9.50;97.90
1766;DHT22;880;52.452;8.656;2023-03-01T12:33:08;10.80;93.40
1766;DHT22;880;52.452;8.656;2023-03-01T18:13:42;7.10;94.40
1766;DHT22;880;52.452;8.656;2023-03-01T18:16:46;7.00;94.90
1766;DHT22;880;52.452;8.656;2023-03-01T18:19:50;7.00;94.90
1766;DHT22;880;52.452;8.656;2023-03-01T18:22:54;7.00;95.60
1766;DHT22;880;52.452;8.656;2023-03-01T18:25:59;6.90;95.30
1766;DHT22;880;52.452;8.656;2023-03-01T18:29:04;6.80;95.90
1766;DHT22;880;52.452;8.656;2023-03-01T18:32:10;6.70;96.30
1766;DHT22;880;52.452;8.656;2023-03-01T18:35:13;6.60;96.40
1766;DHT22;880;52.452;8.656;2023-03-01T18:38:20;6.60;96.80
1766;DHT22;880;52.452;8.656;2023-03-01T18:41:29;6.40;97.00
1766;DHT22;880;52.452;8.656;2023-03-01T18:48:40;6.30;97.60
1766;DHT22;880;52.452;8.656;2023-03-01T18:51:44;6.20;97.80
1766;DHT22;880;52.452;8.656;2023-03-01T18:54:47;6.00;98.10
1766;DHT22;880;52.452;8.656;2023-03-01T18:57:51;5.90;98.20
1766;DHT22;880;52.452;8.656;2023-03-01T19:00:56;5.80;98.20
1766;DHT22;880;52.452;8.656;2023-03-01T19:04:00;5.70;98.20
1766;DHT22;880;52.452;8.656;2023-03-01T19:07:04;5.80;97.80
1766;DHT22;880;52.452;8.656;2023-03-01T19:10:08;5.80;97.90
1766;DHT22;880;52.452;8.656;2023-03-01T19:12:35;5.80;98.40
1766;DHT22;880;52.452;8.656;2023-03-01T19:15:04;5.70;98.30
1766;DHT22;880;52.452;8.656;2023-03-01T19:17:32;5.70;98.50
1766;DHT22;880;52.452;8.656;2023-03-01T19:20:00;5.70;98.80
1766;DHT22;880;52.452;8.656;2023-03-01T19:22:27;5.70;99.10
1766;DHT22;880;52.452;8.656;2023-03-01T19:24:54;5.70;99.30
1766;DHT22;880;52.452;8.656;2023-03-01T19:27:21;5.70;99.60
1766;DHT22;880;52.452;8.656;2023-03-01T19:29:48;5.60;99.50
1766;DHT22;880;52.452;8.656;2023-03-01T19:32:14;5.60;99.30
1766;DHT22;880;52.452;8.656;2023-03-01T19:34:41;5.60;99.40
1766;DHT22;880;52.452;8.656;2023-03-01T19:37:08;5.50;99.60
1766;DHT22;880;52.452;8.656;2023-03-01T19:39:35;5.40;99.60
1766;DHT22;880;52.452;8.656;2023-03-01T19:42:09;5.30;99.80
1766;DHT22;880;52.452;8.656;2023-03-01T19:44:36;5.10;99.90
1766;DHT22;880;52.452;8.656;2023-03-01T19:47:04;5.00;99.90
1766;DHT22;880;52.452;8.656;2023-03-01T19:49:31;4.80;99.90
1766;DHT22;880;52.452;8.656;2023-03-01T19:51:58;4.70;99.90
1766;DHT22;880;52.452;8.656;2023-03-01T19:54:25;4.60;99.90
1766;DHT22;880;52.452;8.656;2023-03-01T19:56:52;4.60;99.90
1766;DHT22;880;52.452;8.656;2023-03-01T19:59:19;4.60;99.90
1766;DHT22;880;52.452;8.656;2023-03-01T20:01:50;4.60;99.90
1766;DHT22;880;52.452;8.656;2023-03-01T20:04:17;4.50;99.90
1766;DHT22;880;52.452;8.656;2023-03-01T20:06:46;4.60;99.90
1766;DHT22;880;52.452;8.656;2023-03-01T20:09:13;4.60;99.90
1766;DHT22;880;52.452;8.656;2023-03-01T20:11:47;4.60;99.90
1766;DHT22;880;52.452;8.656;2023-03-01T20:14:14;4.60;99.90
1766;DHT22;880;52.452;8.656;2023-03-01T20:16:41;4.60;99.90
1766;DHT22;880;52.452;8.656;2023-03-01T20:19:08;4.70;99.90
1766;DHT22;880;52.452;8.656;2023-03-01T20:21:35;4.60;99.90
1766;DHT22;880;52.452;8.656;2023-03-01T20:24:02;4.60;99.90
1766;DHT22;880;52.452;8.656;2023-03-01T20:26:29;4.60;99.90
1766;DHT22;880;52.452;8.656;2023-03-01T20:28:58;4.60;99.90
1766;DHT22;880;52.452;8.656;2023-03-01T20:31:25;4.60;99.90
1766;DHT22;880;52.452;8.656;2023-03-01T20:33:56;4.50;99.90
1766;DHT22;880;52.452;8.656;2023-03-01T20:36:25;4.50;99.90
1766;DHT22;880;52.452;8.656;2023-03-01T20:38:52;4.50;99.90
1766;DHT22;880;52.452;8.656;2023-03-01T20:41:20;4.50;99.90
1766;DHT22;880;52.452;8.656;2023-03-01T20:43:49;4.40;99.90
1766;DHT22;880;52.452;8.656;2023-03-01T20:46:20;4.40;99.90
1766;DHT22;880;52.452;8.656;2023-03-01T20:48:49;4.40;99.90
1766;DHT22;880;52.452;8.656;2023-03-01T20:51:17;4.40;99.90
1766;DHT22;880;52.452;8.656;2023-03-01T20:53:44;4.30;99.90
1766;DHT22;880;52.452;8.656;2023-03-01T20:56:13;4.20;99.90
1766;DHT22;880;52.452;8.656;2023-03-01T20:58:41;4.20;99.90
1766;DHT22;880;52.452;8.656;2023-03-01T21:01:12;4.20;99.90
1766;DHT22;880;52.452;8.656;2023-03-01T21:03:41;4.10;99.90
1766;DHT22;880;52.452;8.656;2023-03-01T21:06:08;4.10;99.90
1766;DHT22;880;52.452;8.656;2023-03-01T21:08:36;4.00;99.90
1766;DHT22;880;52.452;8.656;2023-03-01T21:11:04;4.00;99.90
1766;DHT22;880;52.452;8.656;2023-03-01T21:13:34;3.80;99.90
1766;DHT22;880;52.452;8.656;2023-03-01T21:18:34;3.60;99.90
1766;DHT22;880;52.452;8.656;2023-03-01T21:21:05;3.60;99.90
1766;DHT22;880;52.452;8.656;2023-03-01T21:23:35;3.50;99.90
1766;DHT22;880;52.452;8.656;2023-03-01T21:28:58;3.40;99.90
1766;DHT22;880;52.452;8.656;2023-03-01T21:31:29;3.40;99.90
1766;DHT22;880;52.452;8.656;2023-03-01T21:34:01;3.40;99.90
1766;DHT22;880;52.452;8.656;2023-03-01T21:36:31;3.40;99.90
1766;DHT22;880;52.452;8.656;2023-03-01T21:39:00;3.50;99.90
1766;DHT22;880;52.452;8.656;2023-03-01T21:41:30;3.40;99.90
1766;DHT22;880;52.452;8.656;2023-03-01T21:43:59;3.40;99.90
1766;DHT22;880;52.452;8.656;2023-03-01T21:46:30;3.50;99.90
1766;DHT22;880;52.452;8.656;2023-03-01T21:48:59;3.40;99.90
1766;DHT22;880;52.452;8.656;2023-03-01T21:51:28;3.70;99.90
1766;DHT22;880;52.452;8.656;2023-03-01T21:53:57;3.80;99.90
1766;DHT22;880;52.452;8.656;2023-03-01T21:56:27;3.80;99.90
1766;DHT22;880;52.452;8.656;2023-03-01T21:58:56;3.80;99.90
1766;DHT22;880;52.452;8.656;2023-03-01T22:01:26;3.70;99.90
1766;DHT22;880;52.452;8.656;2023-03-01T22:03:55;3.70;99.90
1766;DHT22;880;52.452;8.656;2023-03-01T22:06:25;3.60;99.90
1766;DHT22;880;52.452;8.656;2023-03-01T22:08:57;3.40;99.90
1766;DHT22;880;52.452;8.656;2023-03-01T22:11:35;3.30;99.90
1766;DHT22;880;52.452;8.656;2023-03-01T22:14:03;3.20;99.90
1766;DHT22;880;52.452;8.656;2023-03-01T22:16:32;3.20;99.90
1766;DHT22;880;52.452;8.656;2023-03-01T22:19:03;3.20;99.90
1766;DHT22;880;52.452;8.656;2023-03-01T22:21:31;3.10;99.90
1766;DHT22;880;52.452;8.656;2023-03-01T22:23:58;3.20;99.90
1766;DHT22;880;52.452;8.656;2023-03-01T22:26:30;3.20;99.90
1766;DHT22;880;52.452;8.656;2023-03-01T22:29:05;3.20;99.90
1766;DHT22;880;52.452;8.656;2023-03-01T22:31:34;3.20;99.90
1766;DHT22;880;52.452;8.656;2023-03-01T22:34:02;3.20;99.90
1766;DHT22;880;52.452;8.656;2023-03-01T22:36:30;3.20;99.90
1766;DHT22;880;52.452;8.656;2023-03-01T22:38:57;3.30;99.90
1766;DHT22;880;52.452;8.656;2023-03-01T22:41:33;3.20;99.90
1766;DHT22;880;52.452;8.656;2023-03-01T22:44:15;3.10;99.90
1766;DHT22;880;52.452;8.656;2023-03-01T22:46:45;3.10;99.90
1766;DHT22;880;52.452;8.656;2023-03-01T22:49:13;3.10;99.90
1766;DHT22;880;52.452;8.656;2023-03-01T22:51:42;3.10;99.90
1766;DHT22;880;52.452;8.656;2023-03-01T22:54:10;3.10;99.90
1766;DHT22;880;52.452;8.656;2023-03-01T22:56:38;3.00;99.90
1766;DHT22;880;52.452;8.656;2023-03-01T22:59:08;3.00;99.90
1766;DHT22;880;52.452;8.656;2023-03-01T23:01:38;3.00;99.90
1766;DHT22;880;52.452;8.656;2023-03-01T23:04:07;2.90;99.90
1766;DHT22;880;52.452;8.656;2023-03-01T23:06:34;2.80;99.90
1766;DHT22;880;52.452;8.656;2023-03-01T23:09:17;2.60;99.90
1766;DHT22;880;52.452;8.656;2023-03-01T23:11:46;2.50;99.90
1766;DHT22;880;52.452;8.656;2023-03-01T23:14:14;2.40;99.90
1766;DHT22;880;52.452;8.656;2023-03-01T23:16:41;2.40;99.90
1766;DHT22;880;52.452;8.656;2023-03-01T23:19:08;2.40;99.90
1766;DHT22;880;52.452;8.656;2023-03-01T23:21:35;2.30;99.90
1766;DHT22;880;52.452;8.656;2023-03-01T23:24:03;2.40;99.90
1766;DHT22;880;52.452;8.656;2023-03-01T23:26:30;2.30;99.90
1766;DHT22;880;52.452;8.656;2023-03-01T23:28:57;2.30;99.90
1766;DHT22;880;52.452;8.656;2023-03-01T23:31:25;2.20;99.90
1766;DHT22;880;52.452;8.656;2023-03-01T23:33:55;2.20;99.90
1766;DHT22;880;52.452;8.656;2023-03-01T23:36:25;2.00;99.90
1766;DHT22;880;52.452;8.656;2023-03-01T23:38:58;2.00;99.90
1766;DHT22;880;52.452;8.656;2023-03-01T23:41:28;1.90;99.90